sensor_id;sensor_type;location;lat;lon;timestamp;P1;durP1;ratioP1;P2;durP2;ratioP2
77876;SDS011;67251;50.844;7.978;2023-09-07T00:00:41;7.88;;;4.13;;
77876;SDS011;67251;50.844;7.978;2023-09-07T00:03:06;9.80;;;3.95;;
77876;SDS011;67251;50.844;7.978;2023-09-07T00:05:32;8.05;;;3.72;;
77876;SDS011;67251;50.844;7.978;2023-09-07T00:07:57;8.43;;;4.25;;
77876;SDS011;67251;50.844;7.978;2023-09-07T00:10:23;8.98;;;4.55;;
77876;SDS011;67251;50.844;7.978;2023-09-07T00:12:50;9.63;;;4.00;;
77876;SDS011;67251;50.844;7.978;2023-09-07T00:15:16;9.38;;;4.22;;
77876;SDS011;67251;50.844;7.978;2023-09-07T00:17:44;9.85;;;4.18;;
77876;SDS011;67251;50.844;7.978;2023-09-07T00:20:09;10.40;;;4.60;;
77876;SDS011;67251;50.844;7.978;2023-09-07T00:22:44;10.00;;;3.97;;
77876;SDS011;67251;50.844;7.978;2023-09-07T00:25:09;8.65;;;4.07;;
77876;SDS011;67251;50.844;7.978;2023-09-07T00:27:35;9.20;;;3.97;;
77876;SDS011;67251;50.844;7.978;2023-09-07T00:30:01;10.48;;;4.10;;
77876;SDS011;67251;50.844;7.978;2023-09-07T00:32:29;10.95;;;4.32;;
77876;SDS011;67251;50.844;7.978;2023-09-07T00:34:54;9.98;;;4.38;;
77876;SDS011;67251;50.844;7.978;2023-09-07T00:37:20;10.02;;;4.45;;
77876;SDS011;67251;50.844;7.978;2023-09-07T00:39:45;9.68;;;4.22;;
77876;SDS011;67251;50.844;7.978;2023-09-07T00:42:10;8.95;;;4.07;;
77876;SDS011;67251;50.844;7.978;2023-09-07T00:44:36;9.57;;;4.40;;
77876;SDS011;67251;50.844;7.978;2023-09-07T00:47:01;9.93;;;4.22;;
77876;SDS011;67251;50.844;7.978;2023-09-07T00:49:27;11.32;;;4.00;;
77876;SDS011;67251;50.844;7.978;2023-09-07T00:51:52;7.00;;;3.60;;
77876;SDS011;67251;50.844;7.978;2023-09-07T00:54:18;7.50;;;3.70;;
77876;SDS011;67251;50.844;7.978;2023-09-07T00:56:44;7.57;;;3.78;;
77876;SDS011;67251;50.844;7.978;2023-09-07T00:59:10;8.25;;;3.42;;
77876;SDS011;67251;50.844;7.978;2023-09-07T01:01:36;8.18;;;3.67;;
77876;SDS011;67251;50.844;7.978;2023-09-07T01:04:02;7.53;;;3.55;;
77876;SDS011;67251;50.844;7.978;2023-09-07T01:09:14;8.32;;;3.67;;
77876;SDS011;67251;50.844;7.978;2023-09-07T01:11:43;8.30;;;3.95;;
77876;SDS011;67251;50.844;7.978;2023-09-07T01:14:08;10.65;;;3.70;;
77876;SDS011;67251;50.844;7.978;2023-09-07T01:16:35;10.05;;;3.95;;
77876;SDS011;67251;50.844;7.978;2023-09-07T01:19:03;7.93;;;4.03;;
77876;SDS011;67251;50.844;7.978;2023-09-07T01:21:34;9.02;;;4.03;;
77876;SDS011;67251;50.844;7.978;2023-09-07T01:24:09;8.68;;;4.15;;
77876;SDS011;67251;50.844;7.978;2023-09-07T01:26:36;10.68;;;3.95;;
77876;SDS011;67251;50.844;7.978;2023-09-07T01:29:04;8.27;;;4.25;;
77876;SDS011;67251;50.844;7.978;2023-09-07T01:31:38;11.63;;;3.78;;
77876;SDS011;67251;50.844;7.978;2023-09-07T01:34:06;6.80;;;3.58;;
77876;SDS011;67251;50.844;7.978;2023-09-07T01:36:32;8.73;;;4.10;;
77876;SDS011;67251;50.844;7.978;2023-09-07T01:38:57;10.70;;;3.78;;
77876;SDS011;67251;50.844;7.978;2023-09-07T01:41:23;8.18;;;3.83;;
77876;SDS011;67251;50.844;7.978;2023-09-07T01:43:48;8.40;;;3.80;;
77876;SDS011;67251;50.844;7.978;2023-09-07T01:49:47;9.35;;;4.20;;
77876;SDS011;67251;50.844;7.978;2023-09-07T01:52:13;8.07;;;4.03;;
77876;SDS011;67251;50.844;7.978;2023-09-07T01:54:38;8.52;;;4.00;;
77876;SDS011;67251;50.844;7.978;2023-09-07T01:57:03;8.15;;;3.35;;
77876;SDS011;67251;50.844;7.978;2023-09-07T01:59:29;9.13;;;3.83;;
77876;SDS011;67251;50.844;7.978;2023-09-07T02:01:54;9.07;;;3.97;;
77876;SDS011;67251;50.844;7.978;2023-09-07T02:04:19;9.57;;;3.75;;
77876;SDS011;67251;50.844;7.978;2023-09-07T02:06:45;10.27;;;3.72;;
77876;SDS011;67251;50.844;7.978;2023-09-07T02:09:10;9.45;;;3.92;;
77876;SDS011;67251;50.844;7.978;2023-09-07T02:11:36;8.32;;;3.88;;
77876;SDS011;67251;50.844;7.978;2023-09-07T02:14:01;7.20;;;3.55;;
77876;SDS011;67251;50.844;7.978;2023-09-07T02:16:27;9.38;;;4.20;;
77876;SDS011;67251;50.844;7.978;2023-09-07T02:18:59;7.85;;;3.40;;
77876;SDS011;67251;50.844;7.978;2023-09-07T02:21:26;12.60;;;4.07;;
77876;SDS011;67251;50.844;7.978;2023-09-07T02:23:51;10.10;;;4.05;;
77876;SDS011;67251;50.844;7.978;2023-09-07T02:26:17;8.13;;;4.18;;
77876;SDS011;67251;50.844;7.978;2023-09-07T02:28:43;10.85;;;4.50;;
77876;SDS011;67251;50.844;7.978;2023-09-07T02:31:08;10.18;;;3.97;;
77876;SDS011;67251;50.844;7.978;2023-09-07T02:33:34;9.93;;;4.20;;
77876;SDS011;67251;50.844;7.978;2023-09-07T02:36:00;8.80;;;4.05;;
77876;SDS011;67251;50.844;7.978;2023-09-07T02:38:26;12.18;;;4.32;;
77876;SDS011;67251;50.844;7.978;2023-09-07T02:40:51;10.05;;;4.20;;
77876;SDS011;67251;50.844;7.978;2023-09-07T02:43:16;13.82;;;4.32;;
77876;SDS011;67251;50.844;7.978;2023-09-07T02:45:42;9.88;;;4.57;;
77876;SDS011;67251;50.844;7.978;2023-09-07T02:48:07;9.00;;;4.10;;
77876;SDS011;67251;50.844;7.978;2023-09-07T02:50:33;9.02;;;4.18;;
77876;SDS011;67251;50.844;7.978;2023-09-07T02:52:59;11.40;;;4.20;;
77876;SDS011;67251;50.844;7.978;2023-09-07T02:55:26;10.43;;;4.13;;
77876;SDS011;67251;50.844;7.978;2023-09-07T02:57:51;9.18;;;4.05;;
77876;SDS011;67251;50.844;7.978;2023-09-07T03:00:17;8.45;;;3.50;;
77876;SDS011;67251;50.844;7.978;2023-09-07T03:02:43;8.82;;;4.18;;
77876;SDS011;67251;50.844;7.978;2023-09-07T03:05:11;8.82;;;3.78;;
77876;SDS011;67251;50.844;7.978;2023-09-07T03:07:36;8.68;;;3.72;;
77876;SDS011;67251;50.844;7.978;2023-09-07T03:10:04;8.02;;;3.90;;
77876;SDS011;67251;50.844;7.978;2023-09-07T03:12:30;11.85;;;4.32;;
77876;SDS011;67251;50.844;7.978;2023-09-07T03:14:55;8.75;;;3.67;;
77876;SDS011;67251;50.844;7.978;2023-09-07T03:17:20;7.53;;;3.78;;
77876;SDS011;67251;50.844;7.978;2023-09-07T03:19:46;8.65;;;3.60;;
77876;SDS011;67251;50.844;7.978;2023-09-07T03:22:12;7.38;;;3.80;;
77876;SDS011;67251;50.844;7.978;2023-09-07T03:24:38;9.05;;;3.97;;
77876;SDS011;67251;50.844;7.978;2023-09-07T03:27:03;8.85;;;3.78;;
77876;SDS011;67251;50.844;7.978;2023-09-07T03:29:30;9.25;;;4.40;;
77876;SDS011;67251;50.844;7.978;2023-09-07T03:31:58;8.63;;;3.83;;
77876;SDS011;67251;50.844;7.978;2023-09-07T03:34:23;11.18;;;4.28;;
77876;SDS011;67251;50.844;7.978;2023-09-07T03:36:49;8.48;;;4.20;;
77876;SDS011;67251;50.844;7.978;2023-09-07T03:39:15;11.77;;;3.90;;
77876;SDS011;67251;50.844;7.978;2023-09-07T03:41:40;9.13;;;4.30;;
77876;SDS011;67251;50.844;7.978;2023-09-07T03:44:05;9.73;;;4.13;;
77876;SDS011;67251;50.844;7.978;2023-09-07T03:46:31;9.02;;;4.03;;
77876;SDS011;67251;50.844;7.978;2023-09-07T03:48:56;11.05;;;4.05;;
77876;SDS011;67251;50.844;7.978;2023-09-07T03:51:21;8.95;;;4.05;;
77876;SDS011;67251;50.844;7.978;2023-09-07T03:53:47;9.10;;;3.92;;
77876;SDS011;67251;50.844;7.978;2023-09-07T03:56:12;8.65;;;3.63;;
77876;SDS011;67251;50.844;7.978;2023-09-07T03:58:38;10.75;;;4.22;;
77876;SDS011;67251;50.844;7.978;2023-09-07T04:01:03;7.65;;;3.97;;
77876;SDS011;67251;50.844;7.978;2023-09-07T04:03:29;9.48;;;4.28;;
77876;SDS011;67251;50.844;7.978;2023-09-07T04:05:54;11.30;;;4.43;;
77876;SDS011;67251;50.844;7.978;2023-09-07T04:08:20;10.32;;;4.10;;
77876;SDS011;67251;50.844;7.978;2023-09-07T04:10:46;8.38;;;3.83;;
77876;SDS011;67251;50.844;7.978;2023-09-07T04:13:11;11.52;;;4.65;;
77876;SDS011;67251;50.844;7.978;2023-09-07T04:15:45;9.15;;;4.43;;
77876;SDS011;67251;50.844;7.978;2023-09-07T04:18:11;10.32;;;4.30;;
77876;SDS011;67251;50.844;7.978;2023-09-07T04:20:41;8.93;;;4.40;;
77876;SDS011;67251;50.844;7.978;2023-09-07T04:23:07;10.70;;;4.25;;
77876;SDS011;67251;50.844;7.978;2023-09-07T04:25:32;11.10;;;4.38;;
77876;SDS011;67251;50.844;7.978;2023-09-07T04:27:57;8.45;;;3.75;;
77876;SDS011;67251;50.844;7.978;2023-09-07T04:30:23;11.40;;;4.07;;
77876;SDS011;67251;50.844;7.978;2023-09-07T04:32:49;7.85;;;3.90;;
77876;SDS011;67251;50.844;7.978;2023-09-07T04:35:14;9.88;;;4.13;;
77876;SDS011;67251;50.844;7.978;2023-09-07T04:37:43;7.97;;;3.78;;
77876;SDS011;67251;50.844;7.978;2023-09-07T04:40:09;8.82;;;4.28;;
77876;SDS011;67251;50.844;7.978;2023-09-07T04:42:35;10.18;;;3.92;;
77876;SDS011;67251;50.844;7.978;2023-09-07T04:45:01;9.07;;;3.92;;
77876;SDS011;67251;50.844;7.978;2023-09-07T04:47:26;8.77;;;4.00;;
77876;SDS011;67251;50.844;7.978;2023-09-07T04:49:52;9.85;;;3.95;;
77876;SDS011;67251;50.844;7.978;2023-09-07T04:52:17;10.02;;;4.82;;
77876;SDS011;67251;50.844;7.978;2023-09-07T04:54:43;9.43;;;4.03;;
77876;SDS011;67251;50.844;7.978;2023-09-07T04:57:09;10.23;;;4.22;;
77876;SDS011;67251;50.844;7.978;2023-09-07T04:59:34;13.55;;;4.72;;
77876;SDS011;67251;50.844;7.978;2023-09-07T05:02:00;10.48;;;4.85;;
77876;SDS011;67251;50.844;7.978;2023-09-07T05:04:28;12.45;;;4.60;;
77876;SDS011;67251;50.844;7.978;2023-09-07T05:06:54;9.35;;;4.32;;
77876;SDS011;67251;50.844;7.978;2023-09-07T05:09:21;9.90;;;4.32;;
77876;SDS011;67251;50.844;7.978;2023-09-07T05:11:46;10.77;;;4.93;;
77876;SDS011;67251;50.844;7.978;2023-09-07T05:14:11;12.90;;;4.68;;
77876;SDS011;67251;50.844;7.978;2023-09-07T05:16:37;9.57;;;4.40;;
77876;SDS011;67251;50.844;7.978;2023-09-07T05:19:02;10.55;;;4.80;;
77876;SDS011;67251;50.844;7.978;2023-09-07T05:21:28;10.18;;;4.28;;
77876;SDS011;67251;50.844;7.978;2023-09-07T05:23:53;9.82;;;4.60;;
77876;SDS011;67251;50.844;7.978;2023-09-07T05:26:22;11.40;;;3.95;;
77876;SDS011;67251;50.844;7.978;2023-09-07T05:28:50;8.90;;;4.22;;
77876;SDS011;67251;50.844;7.978;2023-09-07T05:31:16;8.23;;;3.80;;
77876;SDS011;67251;50.844;7.978;2023-09-07T05:33:41;9.00;;;3.92;;
77876;SDS011;67251;50.844;7.978;2023-09-07T05:36:06;8.63;;;4.93;;
77876;SDS011;67251;50.844;7.978;2023-09-07T05:38:32;10.43;;;3.95;;
77876;SDS011;67251;50.844;7.978;2023-09-07T05:40:57;8.02;;;3.88;;
77876;SDS011;67251;50.844;7.978;2023-09-07T05:43:23;9.48;;;4.50;;
77876;SDS011;67251;50.844;7.978;2023-09-07T05:45:48;9.85;;;4.78;;
77876;SDS011;67251;50.844;7.978;2023-09-07T05:48:14;9.75;;;4.40;;
77876;SDS011;67251;50.844;7.978;2023-09-07T05:50:42;9.70;;;4.25;;
77876;SDS011;67251;50.844;7.978;2023-09-07T05:53:08;8.43;;;4.18;;
77876;SDS011;67251;50.844;7.978;2023-09-07T05:55:33;13.32;;;4.82;;
77876;SDS011;67251;50.844;7.978;2023-09-07T05:57:59;12.05;;;4.63;;
77876;SDS011;67251;50.844;7.978;2023-09-07T06:00:25;9.57;;;4.57;;
77876;SDS011;67251;50.844;7.978;2023-09-07T06:02:51;9.50;;;4.43;;
77876;SDS011;67251;50.844;7.978;2023-09-07T06:05:16;8.73;;;4.13;;
77876;SDS011;67251;50.844;7.978;2023-09-07T06:07:43;11.98;;;4.18;;
77876;SDS011;67251;50.844;7.978;2023-09-07T06:10:09;9.55;;;4.22;;
77876;SDS011;67251;50.844;7.978;2023-09-07T06:12:35;15.60;;;6.13;;
77876;SDS011;67251;50.844;7.978;2023-09-07T06:15:00;15.55;;;6.97;;
77876;SDS011;67251;50.844;7.978;2023-09-07T06:17:26;13.68;;;5.97;;
77876;SDS011;67251;50.844;7.978;2023-09-07T06:19:52;12.43;;;6.78;;
77876;SDS011;67251;50.844;7.978;2023-09-07T06:22:18;14.65;;;6.80;;
77876;SDS011;67251;50.844;7.978;2023-09-07T06:24:44;12.10;;;6.60;;
77876;SDS011;67251;50.844;7.978;2023-09-07T06:27:09;13.63;;;6.00;;
77876;SDS011;67251;50.844;7.978;2023-09-07T06:29:34;17.40;;;7.10;;
77876;SDS011;67251;50.844;7.978;2023-09-07T06:32:00;12.85;;;6.82;;
77876;SDS011;67251;50.844;7.978;2023-09-07T06:34:25;12.75;;;6.10;;
77876;SDS011;67251;50.844;7.978;2023-09-07T06:36:51;12.95;;;6.70;;
77876;SDS011;67251;50.844;7.978;2023-09-07T06:39:16;17.92;;;6.47;;
77876;SDS011;67251;50.844;7.978;2023-09-07T06:41:43;14.85;;;6.55;;
77876;SDS011;67251;50.844;7.978;2023-09-07T06:44:11;15.65;;;6.57;;
77876;SDS011;67251;50.844;7.978;2023-09-07T06:46:36;14.38;;;6.78;;
77876;SDS011;67251;50.844;7.978;2023-09-07T06:49:01;14.68;;;6.95;;
77876;SDS011;67251;50.844;7.978;2023-09-07T06:51:28;14.07;;;6.47;;
77876;SDS011;67251;50.844;7.978;2023-09-07T06:53:53;11.80;;;5.57;;
77876;SDS011;67251;50.844;7.978;2023-09-07T06:56:18;11.43;;;5.53;;
77876;SDS011;67251;50.844;7.978;2023-09-07T06:58:44;12.40;;;5.53;;
77876;SDS011;67251;50.844;7.978;2023-09-07T07:01:09;13.77;;;5.75;;
77876;SDS011;67251;50.844;7.978;2023-09-07T07:03:34;13.63;;;5.35;;
77876;SDS011;67251;50.844;7.978;2023-09-07T07:06:00;9.90;;;4.88;;
77876;SDS011;67251;50.844;7.978;2023-09-07T07:08:25;12.68;;;5.40;;
77876;SDS011;67251;50.844;7.978;2023-09-07T07:10:51;10.27;;;4.82;;
77876;SDS011;67251;50.844;7.978;2023-09-07T07:13:16;11.35;;;5.13;;
77876;SDS011;67251;50.844;7.978;2023-09-07T07:15:42;11.23;;;5.05;;
77876;SDS011;67251;50.844;7.978;2023-09-07T07:18:07;9.80;;;4.80;;
77876;SDS011;67251;50.844;7.978;2023-09-07T07:20:37;11.32;;;5.15;;
77876;SDS011;67251;50.844;7.978;2023-09-07T07:23:03;12.43;;;5.65;;
77876;SDS011;67251;50.844;7.978;2023-09-07T07:25:29;11.32;;;5.43;;
77876;SDS011;67251;50.844;7.978;2023-09-07T07:27:58;10.68;;;5.20;;
77876;SDS011;67251;50.844;7.978;2023-09-07T07:30:26;11.18;;;5.47;;
77876;SDS011;67251;50.844;7.978;2023-09-07T07:32:52;11.57;;;5.85;;
77876;SDS011;67251;50.844;7.978;2023-09-07T07:35:17;10.10;;;5.72;;
77876;SDS011;67251;50.844;7.978;2023-09-07T07:37:43;11.88;;;5.50;;
77876;SDS011;67251;50.844;7.978;2023-09-07T07:40:08;12.27;;;5.78;;
77876;SDS011;67251;50.844;7.978;2023-09-07T07:42:34;10.68;;;5.90;;
77876;SDS011;67251;50.844;7.978;2023-09-07T07:45:04;12.18;;;5.22;;
77876;SDS011;67251;50.844;7.978;2023-09-07T07:47:30;12.05;;;5.20;;
77876;SDS011;67251;50.844;7.978;2023-09-07T07:49:55;13.18;;;5.43;;
77876;SDS011;67251;50.844;7.978;2023-09-07T07:52:21;11.60;;;5.40;;
77876;SDS011;67251;50.844;7.978;2023-09-07T07:54:47;8.02;;;4.70;;
77876;SDS011;67251;50.844;7.978;2023-09-07T07:57:12;11.27;;;5.53;;
77876;SDS011;67251;50.844;7.978;2023-09-07T07:59:37;12.00;;;5.50;;
77876;SDS011;67251;50.844;7.978;2023-09-07T08:02:03;11.75;;;5.65;;
77876;SDS011;67251;50.844;7.978;2023-09-07T08:04:29;10.30;;;5.22;;
77876;SDS011;67251;50.844;7.978;2023-09-07T08:06:54;11.18;;;5.28;;
77876;SDS011;67251;50.844;7.978;2023-09-07T08:09:23;9.65;;;4.95;;
77876;SDS011;67251;50.844;7.978;2023-09-07T08:11:48;10.25;;;4.72;;
77876;SDS011;67251;50.844;7.978;2023-09-07T08:14:14;9.98;;;5.10;;
77876;SDS011;67251;50.844;7.978;2023-09-07T08:16:39;12.05;;;5.32;;
77876;SDS011;67251;50.844;7.978;2023-09-07T08:19:04;9.32;;;4.90;;
77876;SDS011;67251;50.844;7.978;2023-09-07T08:21:30;9.90;;;4.68;;
77876;SDS011;67251;50.844;7.978;2023-09-07T08:23:55;8.88;;;4.90;;
77876;SDS011;67251;50.844;7.978;2023-09-07T08:26:24;10.13;;;5.20;;
77876;SDS011;67251;50.844;7.978;2023-09-07T08:28:49;9.48;;;4.70;;
77876;SDS011;67251;50.844;7.978;2023-09-07T08:31:14;9.48;;;5.70;;
77876;SDS011;67251;50.844;7.978;2023-09-07T08:33:45;9.93;;;4.78;;
77876;SDS011;67251;50.844;7.978;2023-09-07T08:36:11;7.45;;;4.57;;
77876;SDS011;67251;50.844;7.978;2023-09-07T08:38:37;10.90;;;4.88;;
77876;SDS011;67251;50.844;7.978;2023-09-07T08:41:02;8.98;;;4.68;;
77876;SDS011;67251;50.844;7.978;2023-09-07T08:43:30;8.88;;;4.10;;
77876;SDS011;67251;50.844;7.978;2023-09-07T08:46:20;7.40;;;3.45;;
77876;SDS011;67251;50.844;7.978;2023-09-07T08:48:47;5.93;;;3.65;;
77876;SDS011;67251;50.844;7.978;2023-09-07T08:51:17;6.18;;;3.70;;
77876;SDS011;67251;50.844;7.978;2023-09-07T08:53:43;7.07;;;3.95;;
77876;SDS011;67251;50.844;7.978;2023-09-07T08:56:11;5.75;;;3.85;;
77876;SDS011;67251;50.844;7.978;2023-09-07T08:58:38;5.88;;;3.33;;
77876;SDS011;67251;50.844;7.978;2023-09-07T09:01:05;7.68;;;3.10;;
77876;SDS011;67251;50.844;7.978;2023-09-07T09:03:30;7.13;;;3.42;;
77876;SDS011;67251;50.844;7.978;2023-09-07T09:05:56;5.10;;;3.08;;
77876;SDS011;67251;50.844;7.978;2023-09-07T09:08:22;5.20;;;3.10;;
77876;SDS011;67251;50.844;7.978;2023-09-07T09:10:49;6.25;;;3.40;;
77876;SDS011;67251;50.844;7.978;2023-09-07T09:13:29;5.85;;;3.00;;
77876;SDS011;67251;50.844;7.978;2023-09-07T09:16:01;5.53;;;3.22;;
77876;SDS011;67251;50.844;7.978;2023-09-07T09:18:27;5.55;;;3.22;;
77876;SDS011;67251;50.844;7.978;2023-09-07T09:20:54;5.00;;;3.40;;
77876;SDS011;67251;50.844;7.978;2023-09-07T09:23:20;6.35;;;3.22;;
77876;SDS011;67251;50.844;7.978;2023-09-07T09:25:47;6.50;;;3.38;;
77876;SDS011;67251;50.844;7.978;2023-09-07T09:28:13;4.95;;;2.95;;
77876;SDS011;67251;50.844;7.978;2023-09-07T09:30:38;6.30;;;3.05;;
77876;SDS011;67251;50.844;7.978;2023-09-07T09:33:05;11.63;;;3.63;;
77876;SDS011;67251;50.844;7.978;2023-09-07T09:35:31;5.45;;;3.00;;
77876;SDS011;67251;50.844;7.978;2023-09-07T09:38:00;7.03;;;3.97;;
77876;SDS011;67251;50.844;7.978;2023-09-07T09:40:29;6.70;;;3.22;;
77876;SDS011;67251;50.844;7.978;2023-09-07T09:42:55;5.88;;;3.30;;
77876;SDS011;67251;50.844;7.978;2023-09-07T09:45:22;6.00;;;3.80;;
77876;SDS011;67251;50.844;7.978;2023-09-07T09:47:48;7.57;;;3.35;;
77876;SDS011;67251;50.844;7.978;2023-09-07T09:50:15;5.60;;;3.30;;
77876;SDS011;67251;50.844;7.978;2023-09-07T09:52:42;8.10;;;3.05;;
77876;SDS011;67251;50.844;7.978;2023-09-07T09:55:08;6.28;;;2.92;;
77876;SDS011;67251;50.844;7.978;2023-09-07T09:57:37;5.55;;;3.28;;
77876;SDS011;67251;50.844;7.978;2023-09-07T10:00:06;6.32;;;3.30;;
77876;SDS011;67251;50.844;7.978;2023-09-07T10:03:02;5.20;;;3.25;;
77876;SDS011;67251;50.844;7.978;2023-09-07T10:05:32;5.43;;;3.35;;
77876;SDS011;67251;50.844;7.978;2023-09-07T10:08:02;5.57;;;3.13;;
77876;SDS011;67251;50.844;7.978;2023-09-07T10:10:34;5.65;;;3.15;;
77876;SDS011;67251;50.844;7.978;2023-09-07T10:13:01;5.82;;;3.30;;
77876;SDS011;67251;50.844;7.978;2023-09-07T10:15:27;4.82;;;2.92;;
77876;SDS011;67251;50.844;7.978;2023-09-07T10:18:09;5.75;;;3.10;;
77876;SDS011;67251;50.844;7.978;2023-09-07T10:20:55;7.07;;;3.50;;
77876;SDS011;67251;50.844;7.978;2023-09-07T10:23:42;6.38;;;3.50;;
77876;SDS011;67251;50.844;7.978;2023-09-07T10:28:36;7.00;;;3.55;;
77876;SDS011;67251;50.844;7.978;2023-09-07T10:31:04;7.72;;;3.53;;
77876;SDS011;67251;50.844;7.978;2023-09-07T10:33:32;6.45;;;3.58;;
77876;SDS011;67251;50.844;7.978;2023-09-07T10:35:59;5.97;;;3.55;;
77876;SDS011;67251;50.844;7.978;2023-09-07T10:38:25;6.30;;;3.13;;
77876;SDS011;67251;50.844;7.978;2023-09-07T10:40:57;5.05;;;3.00;;
77876;SDS011;67251;50.844;7.978;2023-09-07T10:43:24;4.65;;;3.20;;
77876;SDS011;67251;50.844;7.978;2023-09-07T10:45:51;5.85;;;3.10;;
77876;SDS011;67251;50.844;7.978;2023-09-07T10:48:17;5.05;;;3.03;;
77876;SDS011;67251;50.844;7.978;2023-09-07T10:50:43;5.57;;;3.00;;
77876;SDS011;67251;50.844;7.978;2023-09-07T10:53:11;7.07;;;3.40;;
77876;SDS011;67251;50.844;7.978;2023-09-07T10:55:37;5.40;;;3.05;;
77876;SDS011;67251;50.844;7.978;2023-09-07T10:58:04;6.10;;;3.03;;
77876;SDS011;67251;50.844;7.978;2023-09-07T11:00:30;5.43;;;3.20;;
77876;SDS011;67251;50.844;7.978;2023-09-07T11:02:55;5.05;;;3.10;;
77876;SDS011;67251;50.844;7.978;2023-09-07T11:05:21;6.32;;;3.38;;
77876;SDS011;67251;50.844;7.978;2023-09-07T11:07:46;5.57;;;3.05;;
77876;SDS011;67251;50.844;7.978;2023-09-07T11:10:11;5.65;;;3.60;;
77876;SDS011;67251;50.844;7.978;2023-09-07T11:12:37;6.32;;;3.13;;
77876;SDS011;67251;50.844;7.978;2023-09-07T11:15:04;5.55;;;3.20;;
77876;SDS011;67251;50.844;7.978;2023-09-07T11:17:30;6.38;;;3.13;;
77876;SDS011;67251;50.844;7.978;2023-09-07T11:19:55;4.97;;;3.03;;
77876;SDS011;67251;50.844;7.978;2023-09-07T11:22:21;6.03;;;3.72;;
77876;SDS011;67251;50.844;7.978;2023-09-07T11:24:47;5.97;;;3.00;;
77876;SDS011;67251;50.844;7.978;2023-09-07T11:27:13;5.90;;;3.03;;
77876;SDS011;67251;50.844;7.978;2023-09-07T11:29:38;5.75;;;2.97;;
77876;SDS011;67251;50.844;7.978;2023-09-07T11:32:07;6.70;;;3.35;;
77876;SDS011;67251;50.844;7.978;2023-09-07T11:34:33;7.50;;;3.10;;
77876;SDS011;67251;50.844;7.978;2023-09-07T11:37:01;5.25;;;2.97;;
77876;SDS011;67251;50.844;7.978;2023-09-07T11:39:27;5.22;;;3.05;;
77876;SDS011;67251;50.844;7.978;2023-09-07T11:41:53;5.50;;;2.80;;
77876;SDS011;67251;50.844;7.978;2023-09-07T11:44:18;6.57;;;3.13;;
77876;SDS011;67251;50.844;7.978;2023-09-07T11:46:43;5.50;;;2.80;;
77876;SDS011;67251;50.844;7.978;2023-09-07T11:49:09;6.53;;;3.13;;
77876;SDS011;67251;50.844;7.978;2023-09-07T11:51:34;4.60;;;2.50;;
77876;SDS011;67251;50.844;7.978;2023-09-07T11:54:01;4.90;;;2.83;;
77876;SDS011;67251;50.844;7.978;2023-09-07T11:56:27;4.75;;;2.92;;
77876;SDS011;67251;50.844;7.978;2023-09-07T11:58:52;5.75;;;2.85;;
77876;SDS011;67251;50.844;7.978;2023-09-07T12:01:18;5.68;;;2.65;;
77876;SDS011;67251;50.844;7.978;2023-09-07T12:03:43;4.47;;;2.35;;
77876;SDS011;67251;50.844;7.978;2023-09-07T12:06:09;5.45;;;2.65;;
77876;SDS011;67251;50.844;7.978;2023-09-07T12:08:36;6.22;;;2.90;;
77876;SDS011;67251;50.844;7.978;2023-09-07T12:11:02;6.47;;;2.90;;
77876;SDS011;67251;50.844;7.978;2023-09-07T12:13:27;5.28;;;2.78;;
77876;SDS011;67251;50.844;7.978;2023-09-07T12:15:53;5.95;;;3.13;;
77876;SDS011;67251;50.844;7.978;2023-09-07T12:18:18;5.78;;;2.67;;
77876;SDS011;67251;50.844;7.978;2023-09-07T12:20:43;4.60;;;2.45;;
77876;SDS011;67251;50.844;7.978;2023-09-07T12:23:10;6.53;;;3.00;;
77876;SDS011;67251;50.844;7.978;2023-09-07T12:25:35;4.72;;;2.45;;
77876;SDS011;67251;50.844;7.978;2023-09-07T12:28:01;6.75;;;2.78;;
77876;SDS011;67251;50.844;7.978;2023-09-07T12:30:27;6.53;;;2.80;;
77876;SDS011;67251;50.844;7.978;2023-09-07T12:32:53;4.88;;;2.67;;
77876;SDS011;67251;50.844;7.978;2023-09-07T12:35:19;4.55;;;2.40;;
77876;SDS011;67251;50.844;7.978;2023-09-07T12:37:45;5.85;;;3.00;;
77876;SDS011;67251;50.844;7.978;2023-09-07T12:40:11;5.15;;;2.95;;
77876;SDS011;67251;50.844;7.978;2023-09-07T12:42:45;5.57;;;2.60;;
77876;SDS011;67251;50.844;7.978;2023-09-07T12:45:11;5.47;;;2.72;;
77876;SDS011;67251;50.844;7.978;2023-09-07T12:47:45;5.00;;;2.65;;
77876;SDS011;67251;50.844;7.978;2023-09-07T12:50:10;5.90;;;2.63;;
77876;SDS011;67251;50.844;7.978;2023-09-07T12:52:36;4.78;;;2.67;;
77876;SDS011;67251;50.844;7.978;2023-09-07T12:55:03;6.10;;;2.72;;
77876;SDS011;67251;50.844;7.978;2023-09-07T12:57:32;6.65;;;3.00;;
77876;SDS011;67251;50.844;7.978;2023-09-07T12:59:58;6.07;;;2.80;;
77876;SDS011;67251;50.844;7.978;2023-09-07T13:02:23;5.40;;;2.90;;
77876;SDS011;67251;50.844;7.978;2023-09-07T13:04:49;5.75;;;2.92;;
77876;SDS011;67251;50.844;7.978;2023-09-07T13:07:14;6.45;;;3.00;;
77876;SDS011;67251;50.844;7.978;2023-09-07T13:09:42;6.40;;;2.80;;
77876;SDS011;67251;50.844;7.978;2023-09-07T13:12:08;5.50;;;2.95;;
77876;SDS011;67251;50.844;7.978;2023-09-07T13:14:33;4.97;;;2.80;;
77876;SDS011;67251;50.844;7.978;2023-09-07T13:16:59;6.47;;;2.88;;
77876;SDS011;67251;50.844;7.978;2023-09-07T13:19:24;5.32;;;2.72;;
77876;SDS011;67251;50.844;7.978;2023-09-07T13:21:49;6.13;;;2.85;;
77876;SDS011;67251;50.844;7.978;2023-09-07T13:24:14;6.47;;;2.70;;
77876;SDS011;67251;50.844;7.978;2023-09-07T13:26:40;5.18;;;2.42;;
77876;SDS011;67251;50.844;7.978;2023-09-07T13:29:06;6.78;;;2.78;;
77876;SDS011;67251;50.844;7.978;2023-09-07T13:31:32;5.28;;;2.55;;
77876;SDS011;67251;50.844;7.978;2023-09-07T13:33:57;4.90;;;2.70;;
77876;SDS011;67251;50.844;7.978;2023-09-07T13:36:24;5.70;;;2.65;;
77876;SDS011;67251;50.844;7.978;2023-09-07T13:38:49;5.85;;;3.22;;
77876;SDS011;67251;50.844;7.978;2023-09-07T13:41:14;6.80;;;2.70;;
77876;SDS011;67251;50.844;7.978;2023-09-07T13:43:40;5.28;;;2.67;;
77876;SDS011;67251;50.844;7.978;2023-09-07T13:46:05;6.72;;;3.13;;
77876;SDS011;67251;50.844;7.978;2023-09-07T13:48:31;5.93;;;2.60;;
77876;SDS011;67251;50.844;7.978;2023-09-07T13:50:58;4.78;;;2.60;;
77876;SDS011;67251;50.844;7.978;2023-09-07T13:53:23;5.93;;;2.80;;
77876;SDS011;67251;50.844;7.978;2023-09-07T13:55:49;6.50;;;2.90;;
77876;SDS011;67251;50.844;7.978;2023-09-07T13:58:15;5.30;;;2.85;;
77876;SDS011;67251;50.844;7.978;2023-09-07T14:00:40;5.38;;;2.72;;
77876;SDS011;67251;50.844;7.978;2023-09-07T14:03:05;5.43;;;2.70;;
77876;SDS011;67251;50.844;7.978;2023-09-07T14:05:31;7.20;;;2.97;;
77876;SDS011;67251;50.844;7.978;2023-09-07T14:07:56;5.95;;;2.75;;
77876;SDS011;67251;50.844;7.978;2023-09-07T14:10:22;5.93;;;2.90;;
77876;SDS011;67251;50.844;7.978;2023-09-07T14:12:47;5.50;;;2.50;;
77876;SDS011;67251;50.844;7.978;2023-09-07T14:15:13;5.20;;;2.97;;
77876;SDS011;67251;50.844;7.978;2023-09-07T14:17:39;8.02;;;3.00;;
77876;SDS011;67251;50.844;7.978;2023-09-07T14:20:04;4.88;;;2.80;;
77876;SDS011;67251;50.844;7.978;2023-09-07T14:22:30;7.13;;;3.08;;
77876;SDS011;67251;50.844;7.978;2023-09-07T14:24:55;5.63;;;2.97;;
77876;SDS011;67251;50.844;7.978;2023-09-07T14:27:21;5.47;;;2.80;;
77876;SDS011;67251;50.844;7.978;2023-09-07T14:29:46;5.60;;;2.55;;
77876;SDS011;67251;50.844;7.978;2023-09-07T14:32:11;6.18;;;2.88;;
77876;SDS011;67251;50.844;7.978;2023-09-07T14:34:37;5.20;;;2.53;;
77876;SDS011;67251;50.844;7.978;2023-09-07T14:37:02;5.65;;;2.60;;
77876;SDS011;67251;50.844;7.978;2023-09-07T14:39:28;5.85;;;3.53;;
77876;SDS011;67251;50.844;7.978;2023-09-07T14:41:53;4.70;;;2.50;;
77876;SDS011;67251;50.844;7.978;2023-09-07T14:44:19;6.15;;;2.90;;
77876;SDS011;67251;50.844;7.978;2023-09-07T14:46:45;5.47;;;2.90;;